createdAt,value
2023-01-30T00:01:45.750Z,81.10
2023-01-30T00:04:48.462Z,80.58
2023-01-30T00:07:50.875Z,80.71
2023-01-30T00:10:53.565Z,80.93
2023-01-30T00:13:56.064Z,79.45
2023-01-30T00:16:58.681Z,79.53
2023-01-30T00:20:01.161Z,79.29
2023-01-30T00:23:04.192Z,79.54
2023-01-30T00:26:07.022Z,79.34
2023-01-30T00:29:09.946Z,79.36
2023-01-30T00:32:12.427Z,78.69
2023-01-30T00:35:16.027Z,79.08
2023-01-30T00:38:19.163Z,79.06
2023-01-30T00:41:22.805Z,79.37
2023-01-30T00:44:43.880Z,79.99
2023-01-30T00:47:48.992Z,80.34
2023-01-30T00:50:51.489Z,81.81
2023-01-30T00:53:54.311Z,81.72
2023-01-30T00:56:56.782Z,82.50
2023-01-30T01:00:01.042Z,82.40
2023-01-30T01:03:03.927Z,83.03
2023-01-30T01:06:06.904Z,82.86
2023-01-30T01:09:09.546Z,82.28
2023-01-30T01:12:12.292Z,81.74
2023-01-30T01:15:15.113Z,81.84
2023-01-30T01:18:17.943Z,81.68
2023-01-30T01:21:22.624Z,81.55
2023-01-30T01:24:25.376Z,81.41
2023-01-30T01:27:29.091Z,81.46
2023-01-30T01:30:31.832Z,80.75
2023-01-30T01:33:34.231Z,79.78
2023-01-30T01:36:52.872Z,79.51
2023-01-30T01:40:14.562Z,79.20
2023-01-30T01:43:20.825Z,77.30
2023-01-30T01:46:28.024Z,76.65
2023-01-30T01:49:37.229Z,77.24
2023-01-30T01:52:39.710Z,77.60
2023-01-30T01:55:47.317Z,78.23
2023-01-30T01:58:58.347Z,80.31
2023-01-30T02:02:06.859Z,81.04
2023-01-30T02:05:12.844Z,80.84
2023-01-30T02:08:20.459Z,80.70
2023-01-30T02:11:46.728Z,80.97
2023-01-30T02:14:50.650Z,81.23
2023-01-30T02:17:53.460Z,80.47
2023-01-30T02:21:20.961Z,80.46
2023-01-30T02:24:43.405Z,80.50
2023-01-30T02:28:12.956Z,80.96
2023-01-30T02:31:24.913Z,80.72
2023-01-30T02:34:46.359Z,81.04
2023-01-30T02:38:14.239Z,81.51
2023-01-30T02:41:36.791Z,82.47
2023-01-30T02:45:24.253Z,82.61
2023-01-30T02:48:47.481Z,84.16
2023-01-30T02:51:54.387Z,84.93
2023-01-30T02:54:56.783Z,84.75
2023-01-30T02:58:00.429Z,85.07
2023-01-30T03:01:39.962Z,85.62
2023-01-30T03:05:01.245Z,86.25
2023-01-30T03:08:28.547Z,86.55
2023-01-30T03:12:24.708Z,86.79
2023-01-30T03:15:33.979Z,86.81
2023-01-30T03:18:36.716Z,86.99
2023-01-30T03:21:44.641Z,87.07
2023-01-30T03:24:48.387Z,86.71
2023-01-30T03:27:55.532Z,86.38
2023-01-30T03:30:58.509Z,86.67
2023-01-30T03:34:00.983Z,86.21
2023-01-30T03:37:05.483Z,86.29
2023-01-30T03:40:10.412Z,86.57
2023-01-30T03:43:13.374Z,85.73
2023-01-30T03:46:15.841Z,85.80
2023-01-30T03:49:21.648Z,85.04
2023-01-30T03:52:24.274Z,84.75
2023-01-30T03:55:27.117Z,84.11
2023-01-30T03:58:29.529Z,84.09
2023-01-30T04:01:33.012Z,83.68
2023-01-30T04:04:35.915Z,83.29
2023-01-30T04:07:39.249Z,83.46
2023-01-30T04:10:44.484Z,82.37
2023-01-30T04:13:46.922Z,82.78
2023-01-30T04:16:50.215Z,82.27
2023-01-30T04:19:57.948Z,81.97
2023-01-30T04:23:01.017Z,82.28
2023-01-30T04:26:03.803Z,82.75
2023-01-30T04:29:07.745Z,83.07
2023-01-30T04:32:11.729Z,83.54
2023-01-30T04:35:14.945Z,84.33
2023-01-30T04:38:17.425Z,84.86
2023-01-30T04:41:20.629Z,83.49
2023-01-30T04:44:23.617Z,83.79
2023-01-30T04:47:26.427Z,83.88
2023-01-30T04:50:29.477Z,83.91
2023-01-30T04:53:32.443Z,84.07
2023-01-30T04:56:36.019Z,83.68
2023-01-30T04:59:38.758Z,84.12
2023-01-30T05:02:41.605Z,83.25
2023-01-30T05:05:47.520Z,82.99
2023-01-30T05:08:51.445Z,82.82
2023-01-30T05:11:54.160Z,83.05
2023-01-30T05:14:58.894Z,83.58
2023-01-30T05:18:01.534Z,83.97
2023-01-30T05:21:09.108Z,84.07
2023-01-30T05:24:11.830Z,84.59
2023-01-30T05:27:14.264Z,84.56
2023-01-30T05:30:17.191Z,84.65
2023-01-30T05:33:19.656Z,84.93
2023-01-30T05:36:23.906Z,85.57
2023-01-30T05:39:26.336Z,86.37
2023-01-30T05:42:31.553Z,86.31
2023-01-30T05:45:33.936Z,85.84
2023-01-30T05:48:36.597Z,85.63
2023-01-30T05:51:38.968Z,85.22
2023-01-30T05:54:41.729Z,85.29
2023-01-30T05:57:44.149Z,83.47
2023-01-30T06:00:46.842Z,82.82
2023-01-30T06:03:49.751Z,83.08
2023-01-30T06:06:52.300Z,81.79
2023-01-30T06:09:57.696Z,81.82
2023-01-30T06:13:00.290Z,81.61
2023-01-30T06:16:03.526Z,81.44
2023-01-30T06:19:06.089Z,81.65
2023-01-30T06:22:08.914Z,81.72
2023-01-30T06:25:11.522Z,81.75
2023-01-30T06:28:16.660Z,81.32
2023-01-30T06:31:19.408Z,81.13
2023-01-30T06:34:22.388Z,81.68
2023-01-30T06:37:24.940Z,81.98
2023-01-30T06:40:27.768Z,82.03
2023-01-30T06:43:30.276Z,82.11
2023-01-30T06:46:33.129Z,82.76
2023-01-30T06:49:35.552Z,84.17
2023-01-30T06:52:42.458Z,84.24
2023-01-30T06:55:44.940Z,84.39
2023-01-30T06:58:47.698Z,84.59
2023-01-30T07:01:50.185Z,84.87
2023-01-30T07:04:52.943Z,85.02
2023-01-30T07:07:55.454Z,84.22
2023-01-30T07:10:58.128Z,83.66
2023-01-30T07:14:00.509Z,84.10
2023-01-30T07:17:03.255Z,84.34
2023-01-30T07:20:06.088Z,84.78
2023-01-30T07:23:08.962Z,84.11
2023-01-30T07:26:11.377Z,83.39
2023-01-30T07:29:14.096Z,83.01
2023-01-30T07:32:19.326Z,81.42
2023-01-30T07:35:23.171Z,80.39
2023-01-30T07:38:25.947Z,80.49
2023-01-30T07:41:28.804Z,80.75
2023-01-30T07:44:32.066Z,80.31
2023-01-30T07:47:35.364Z,79.91
2023-01-30T07:50:38.346Z,78.92
2023-01-30T07:53:41.214Z,79.61
2023-01-30T07:56:44.044Z,79.19
2023-01-30T07:59:47.049Z,79.24
2023-01-30T08:02:49.693Z,79.15
2023-01-30T08:05:54.131Z,78.83
2023-01-30T08:08:56.827Z,79.17
2023-01-30T08:11:59.922Z,76.92
2023-01-30T08:15:02.603Z,75.94
2023-01-30T08:18:07.419Z,74.17
2023-01-30T08:21:10.794Z,75.64
2023-01-30T08:24:13.811Z,75.71
2023-01-30T08:27:16.262Z,74.81
2023-01-30T08:30:38.299Z,72.66
2023-01-30T08:33:40.681Z,71.58
2023-01-30T08:36:46.699Z,67.69
2023-01-30T08:39:49.101Z,66.15
2023-01-30T08:42:51.978Z,67.57
2023-01-30T08:45:55.097Z,70.41
2023-01-30T08:48:57.764Z,72.08
2023-01-30T08:52:00.149Z,72.45
2023-01-30T08:55:04.350Z,73.83
2023-01-30T08:58:06.989Z,73.52
2023-01-30T09:01:10.169Z,72.39
2023-01-30T09:04:12.686Z,72.85
2023-01-30T09:07:15.426Z,71.48
2023-01-30T09:10:18.624Z,71.05
2023-01-30T09:13:22.463Z,69.94
2023-01-30T09:16:26.201Z,70.61
2023-01-30T09:19:29.360Z,70.55
2023-01-30T09:22:32.691Z,71.00
2023-01-30T09:25:35.608Z,71.85
2023-01-30T09:28:38.230Z,72.40
2023-01-30T09:31:41.723Z,70.23
2023-01-30T09:34:44.319Z,70.78
2023-01-30T09:37:49.044Z,69.64
2023-01-30T09:41:06.986Z,70.49
2023-01-30T09:44:47.989Z,71.55
2023-01-30T09:48:04.320Z,72.44
2023-01-30T09:51:19.707Z,71.89
2023-01-30T09:54:30.707Z,72.22
2023-01-30T09:57:33.618Z,71.58
2023-01-30T10:00:44.628Z,70.04
2023-01-30T10:04:01.713Z,69.88
2023-01-30T10:07:13.179Z,69.17
2023-01-30T10:10:16.094Z,70.13
2023-01-30T10:13:29.953Z,70.81
2023-01-30T10:17:07.866Z,70.25
2023-01-30T10:20:22.597Z,68.43
2023-01-30T10:24:03.069Z,69.73
2023-01-30T10:27:13.876Z,68.52
2023-01-30T10:30:17.766Z,66.10
2023-01-30T10:33:30.716Z,66.97
2023-01-30T10:36:43.689Z,67.45
2023-01-30T10:40:13.466Z,67.97
2023-01-30T10:43:23.967Z,70.12
2023-01-30T10:46:29.463Z,71.77
2023-01-30T10:49:41.577Z,72.25
2023-01-30T10:52:53.041Z,72.70
2023-01-30T10:56:08.735Z,73.01
2023-01-30T10:59:34.903Z,73.26
2023-01-30T11:03:08.523Z,72.96
2023-01-30T11:06:19.353Z,72.60
2023-01-30T11:09:24.389Z,72.77
2023-01-30T11:12:27.171Z,73.43
2023-01-30T11:15:45.599Z,74.30
2023-01-30T11:22:15.467Z,70.92
2023-01-30T11:25:21.985Z,72.23
2023-01-30T11:28:26.488Z,71.76
2023-01-30T11:31:41.024Z,70.25
2023-01-30T11:34:44.871Z,70.58
2023-01-30T11:37:47.581Z,71.98
2023-01-30T11:40:50.755Z,73.12
2023-01-30T11:44:03.587Z,72.77
2023-01-30T11:47:26.193Z,73.02
2023-01-30T11:50:36.420Z,72.60
2023-01-30T11:53:47.583Z,73.65
2023-01-30T11:56:54.771Z,72.46
2023-01-30T12:00:00.821Z,71.73
2023-01-30T12:03:10.070Z,72.26
2023-01-30T12:06:22.645Z,73.11
2023-01-30T12:09:38.662Z,73.94
2023-01-30T12:12:51.992Z,74.45
2023-01-30T12:16:42.448Z,74.64
2023-01-30T12:20:03.904Z,74.82
2023-01-30T12:23:40.589Z,75.26
2023-01-30T12:27:04.823Z,75.22
2023-01-30T12:30:27.296Z,74.82
2023-01-30T12:33:32.950Z,75.26
2023-01-30T12:36:52.557Z,75.40
2023-01-30T12:40:16.210Z,75.62
2023-01-30T12:43:44.476Z,75.24
2023-01-30T12:47:05.385Z,74.99
2023-01-30T12:50:36.591Z,74.73
2023-01-30T12:53:45.332Z,75.21
2023-01-30T12:57:00.510Z,75.45
2023-01-30T13:00:21.885Z,75.98
2023-01-30T13:03:50.394Z,75.84
2023-01-30T13:07:16.717Z,75.32
2023-01-30T13:10:25.485Z,75.32
2023-01-30T13:13:39.489Z,75.75
2023-01-30T13:17:00.874Z,75.76
2023-01-30T13:20:09.605Z,75.30
2023-01-30T13:23:32.144Z,75.36
2023-01-30T13:26:37.753Z,75.42
2023-01-30T13:29:42.068Z,75.09
2023-01-30T13:32:50.037Z,75.63
2023-01-30T13:36:08.191Z,75.43
2023-01-30T13:39:19.716Z,75.35
2023-01-30T13:42:29.895Z,75.77
2023-01-30T13:45:36.673Z,75.99
2023-01-30T13:48:48.254Z,76.18
2023-01-30T13:52:24.538Z,76.05
2023-01-30T13:55:39.024Z,76.17
2023-01-30T13:58:59.176Z,75.99
2023-01-30T14:02:06.637Z,76.12
2023-01-30T14:05:10.046Z,76.26
2023-01-30T14:08:19.942Z,76.56
2023-01-30T14:11:34.429Z,76.67
2023-01-30T14:14:38.331Z,76.91
2023-01-30T14:18:00.891Z,77.18
2023-01-30T14:21:26.473Z,77.38
2023-01-30T14:24:31.489Z,77.83
2023-01-30T14:27:33.921Z,77.95
2023-01-30T14:30:53.417Z,77.92
2023-01-30T14:33:55.830Z,77.90
2023-01-30T14:36:58.527Z,77.98
2023-01-30T14:40:02.628Z,78.32
2023-01-30T14:43:19.529Z,77.74
2023-01-30T14:46:21.912Z,76.91
2023-01-30T14:49:28.336Z,76.84
2023-01-30T14:52:39.629Z,76.85
2023-01-30T14:55:42.955Z,77.08
2023-01-30T14:59:01.136Z,77.46
2023-01-30T15:02:13.108Z,77.80
2023-01-30T15:05:20.012Z,77.86
2023-01-30T15:08:26.970Z,77.48
2023-01-30T15:11:33.120Z,77.65
2023-01-30T15:14:45.585Z,77.79
2023-01-30T15:18:01.981Z,78.27
2023-01-30T15:22:14.740Z,79.86
2023-01-30T15:25:41.545Z,80.04
2023-01-30T15:29:15.514Z,80.54
2023-01-30T15:32:25.129Z,80.64
2023-01-30T15:35:28.635Z,80.36
2023-01-30T15:38:33.757Z,80.42
2023-01-30T15:41:41.248Z,80.93
2023-01-30T15:45:07.545Z,81.63
2023-01-30T15:48:13.300Z,81.85
2023-01-30T15:51:19.789Z,81.69
2023-01-30T15:54:24.188Z,81.87
2023-01-30T15:57:39.087Z,81.72
2023-01-30T16:00:46.689Z,81.83
2023-01-30T16:03:51.091Z,82.06
2023-01-30T16:06:53.568Z,81.85
2023-01-30T16:10:07.197Z,81.98
2023-01-30T16:13:10.257Z,81.84
2023-01-30T16:16:19.479Z,81.77
2023-01-30T16:19:29.674Z,82.57
2023-01-30T16:22:35.084Z,83.51
2023-01-30T16:25:37.646Z,84.45
2023-01-30T16:28:40.940Z,84.95
2023-01-30T16:31:47.540Z,85.70
2023-01-30T16:34:50.426Z,86.11
2023-01-30T16:37:54.240Z,86.60
2023-01-30T16:40:58.305Z,86.97
2023-01-30T16:44:20.703Z,87.04
2023-01-30T16:47:25.178Z,87.75
2023-01-30T16:50:27.843Z,88.25
2023-01-30T16:53:32.482Z,88.68
2023-01-30T16:56:35.866Z,89.75
2023-01-30T16:59:39.356Z,90.96
2023-01-30T17:02:42.615Z,91.84
2023-01-30T17:05:48.567Z,91.98
2023-01-30T17:08:57.816Z,92.26
2023-01-30T17:12:01.017Z,92.81
2023-01-30T17:15:28.573Z,93.06
2023-01-30T17:18:31.231Z,93.43
2023-01-30T17:21:51.156Z,93.86
2023-01-30T17:25:00.967Z,93.79
2023-01-30T17:28:04.845Z,94.05
2023-01-30T17:31:15.385Z,93.85
2023-01-30T17:34:18.276Z,93.76
2023-01-30T17:37:22.458Z,93.72
2023-01-30T17:40:33.239Z,93.71
2023-01-30T17:43:35.985Z,93.72
2023-01-30T17:46:42.424Z,93.43
2023-01-30T17:49:45.248Z,93.18
2023-01-30T17:52:47.755Z,93.09
2023-01-30T17:55:50.476Z,93.08
2023-01-30T17:58:53.158Z,93.02
2023-01-30T18:01:55.911Z,92.91
2023-01-30T18:04:58.724Z,93.15
2023-01-30T18:08:01.732Z,93.18
2023-01-30T18:11:04.452Z,92.84
2023-01-30T18:14:07.300Z,92.92
2023-01-30T18:17:10.875Z,92.98
2023-01-30T18:20:14.854Z,93.01
2023-01-30T18:23:18.140Z,93.21
2023-01-30T18:26:20.677Z,93.11
2023-01-30T18:29:23.473Z,92.94
2023-01-30T18:32:25.997Z,92.86
2023-01-30T18:35:28.795Z,92.93
2023-01-30T18:38:31.509Z,92.00
2023-01-30T18:41:35.537Z,91.64
2023-01-30T18:44:38.060Z,91.08
2023-01-30T18:47:40.816Z,91.14
2023-01-30T18:50:43.276Z,90.89
2023-01-30T18:53:50.473Z,90.60
2023-01-30T18:56:53.144Z,90.26
2023-01-30T18:59:55.867Z,89.63
2023-01-30T19:02:58.466Z,89.29
2023-01-30T19:06:02.336Z,88.69
2023-01-30T19:09:06.055Z,87.70
2023-01-30T19:12:28.084Z,87.10
2023-01-30T19:15:30.752Z,87.24
2023-01-30T19:18:34.356Z,86.95
2023-01-30T19:21:37.197Z,86.40
2023-01-30T19:24:39.936Z,86.12
2023-01-30T19:27:44.184Z,86.14
2023-01-30T19:30:46.993Z,86.19
2023-01-30T19:33:58.445Z,85.94
2023-01-30T19:37:01.364Z,86.66
2023-01-30T19:40:08.715Z,85.53
2023-01-30T19:43:12.965Z,85.66
2023-01-30T19:46:15.550Z,86.23
2023-01-30T19:49:18.420Z,85.99
2023-01-30T19:52:20.911Z,85.99
2023-01-30T19:55:24.559Z,86.09
2023-01-30T19:58:27.063Z,86.34
2023-01-30T20:01:32.989Z,85.48
2023-01-30T20:04:35.792Z,85.62
2023-01-30T20:07:38.631Z,86.16
2023-01-30T20:10:41.830Z,86.07
2023-01-30T20:13:45.498Z,86.18
2023-01-30T20:16:48.256Z,85.64
2023-01-30T20:19:50.649Z,85.98
2023-01-30T20:22:53.289Z,85.98
2023-01-30T20:25:55.802Z,86.19
2023-01-30T20:28:58.641Z,86.53
2023-01-30T20:32:01.116Z,86.56
2023-01-30T20:35:03.983Z,86.59
2023-01-30T20:38:06.429Z,86.81
2023-01-30T20:41:11.026Z,86.62
2023-01-30T20:44:14.709Z,86.58
2023-01-30T20:47:17.470Z,86.57
2023-01-30T20:50:20.413Z,87.02
2023-01-30T20:53:23.376Z,86.96
2023-01-30T20:56:30.368Z,87.01
2023-01-30T20:59:34.190Z,86.84
2023-01-30T21:02:37.037Z,87.06
2023-01-30T21:05:39.869Z,87.42
2023-01-30T21:08:42.563Z,87.68
2023-01-30T21:11:45.789Z,88.09
2023-01-30T21:14:48.287Z,88.21
2023-01-30T21:17:51.056Z,88.35
2023-01-30T21:20:53.516Z,88.60
2023-01-30T21:23:59.554Z,88.98
2023-01-30T21:27:01.988Z,88.79
2023-01-30T21:30:05.109Z,88.79
2023-01-30T21:33:07.693Z,88.94
2023-01-30T21:36:11.913Z,89.03
2023-01-30T21:39:33.106Z,89.34
2023-01-30T21:42:54.272Z,89.37
2023-01-30T21:45:59.721Z,89.94
2023-01-30T21:49:02.641Z,90.19
2023-01-30T21:52:05.130Z,90.26
2023-01-30T21:55:08.413Z,90.43
2023-01-30T21:58:10.954Z,90.49
2023-01-30T22:01:14.049Z,90.55
2023-01-30T22:04:17.052Z,90.80
2023-01-30T22:07:19.582Z,90.75
2023-01-30T22:10:22.381Z,91.06
2023-01-30T22:13:24.793Z,91.36
2023-01-30T22:16:29.386Z,91.59
2023-01-30T22:19:35.811Z,91.77
2023-01-30T22:22:38.730Z,91.75
2023-01-30T22:25:41.097Z,92.09
2023-01-30T22:28:44.245Z,92.23
2023-01-30T22:31:46.713Z,92.45
2023-01-30T22:34:49.534Z,92.53
2023-01-30T22:37:51.911Z,92.46
2023-01-30T22:41:08.801Z,92.53
2023-01-30T22:44:11.203Z,92.68
2023-01-30T22:47:13.985Z,92.67
2023-01-30T22:50:16.688Z,92.77
2023-01-30T22:53:19.384Z,93.14
2023-01-30T22:56:27.768Z,93.18
2023-01-30T22:59:30.458Z,93.34
2023-01-30T23:02:32.877Z,93.61
2023-01-30T23:05:35.744Z,93.78
2023-01-30T23:08:40.432Z,93.90
2023-01-30T23:12:07.243Z,94.12
2023-01-30T23:15:10.205Z,94.31
2023-01-30T23:18:32.886Z,94.23
2023-01-30T23:21:44.227Z,94.42
2023-01-30T23:24:48.827Z,94.33
2023-01-30T23:27:51.310Z,94.55
2023-01-30T23:30:54.081Z,94.61
2023-01-30T23:33:59.492Z,94.69
2023-01-30T23:37:02.279Z,94.81
2023-01-30T23:40:05.370Z,94.99
2023-01-30T23:43:08.140Z,95.12
2023-01-30T23:46:11.826Z,95.24
2023-01-30T23:49:15.257Z,95.30
2023-01-30T23:52:17.607Z,95.43
2023-01-30T23:55:23.049Z,95.53
2023-01-30T23:58:25.504Z,95.69
